createdAt,value
2019-05-06T00:00:19.950Z,100042.15
2019-05-06T00:02:46.715Z,100039.84
2019-05-06T00:05:14.380Z,100045.08
2019-05-06T00:07:44.461Z,100041.00
2019-05-06T00:10:25.510Z,100039.43
2019-05-06T00:12:53.583Z,100043.95
2019-05-06T00:15:23.447Z,100042.47
2019-05-06T00:17:50.361Z,100043.00
2019-05-06T00:20:17.151Z,100039.91
2019-05-06T00:22:43.956Z,100039.42
2019-05-06T00:25:16.901Z,100037.30
2019-05-06T00:28:01.326Z,100037.31
2019-05-06T00:30:27.989Z,100046.39
2019-05-06T00:32:54.562Z,100038.09
2019-05-06T00:35:23.364Z,100044.66
2019-05-06T00:37:49.952Z,100046.25
2019-05-06T00:40:27.871Z,100042.53
2019-05-06T00:42:58.441Z,100042.30
2019-05-06T00:45:25.122Z,100037.17
2019-05-06T00:47:53.579Z,100039.13
2019-05-06T00:50:20.375Z,100037.70
2019-05-06T00:52:47.825Z,100034.01
2019-05-06T00:55:14.916Z,100028.59
2019-05-06T00:57:44.735Z,100032.48
2019-05-06T01:00:17.259Z,100035.12
2019-05-06T01:02:44.050Z,100044.53
2019-05-06T01:05:13.410Z,100031.11
2019-05-06T01:07:40.421Z,100037.16
2019-05-06T01:10:07.599Z,100041.77
2019-05-06T01:15:14.514Z,100039.76
2019-05-06T01:17:41.206Z,100035.43
2019-05-06T01:20:08.722Z,100036.44
2019-05-06T01:22:35.618Z,100039.75
2019-05-06T01:25:03.974Z,100042.45
2019-05-06T01:27:30.959Z,100039.61
2019-05-06T01:29:58.043Z,100043.09
2019-05-06T01:32:24.739Z,100050.76
2019-05-06T01:34:53.686Z,100045.06
2019-05-06T01:37:20.210Z,100042.94
2019-05-06T01:39:57.615Z,100065.20
2019-05-06T01:42:46.928Z,100044.36
2019-05-06T01:45:14.197Z,100034.38
2019-05-06T01:47:41.036Z,100039.43
2019-05-06T01:50:08.218Z,100035.08
2019-05-06T01:52:35.014Z,100045.02
2019-05-06T01:55:01.696Z,100046.48
2019-05-06T01:57:28.664Z,100043.48
2019-05-06T01:59:55.342Z,100046.33
2019-05-06T02:02:24.480Z,100055.53
2019-05-06T02:07:24.137Z,100054.41
2019-05-06T02:09:50.883Z,100057.52
2019-05-06T02:12:17.526Z,100057.81
2019-05-06T02:14:44.202Z,100059.74
2019-05-06T02:17:10.808Z,100055.61
2019-05-06T02:19:38.082Z,100058.17
2019-05-06T02:22:20.454Z,100058.17
2019-05-06T02:24:53.470Z,100062.30
2019-05-06T02:27:19.981Z,100058.46
2019-05-06T02:29:54.335Z,100056.30
2019-05-06T02:32:31.993Z,100051.52
2019-05-06T02:35:18.198Z,100058.14
2019-05-06T02:37:46.478Z,100054.70
2019-05-06T02:40:24.747Z,100059.27
2019-05-06T02:42:54.583Z,100059.48
2019-05-06T02:45:20.241Z,100061.08
2019-05-06T02:48:06.719Z,100052.45
2019-05-06T02:50:53.913Z,100057.91
2019-05-06T02:53:23.718Z,100057.28
2019-05-06T02:55:52.850Z,100056.70
2019-05-06T02:58:19.255Z,100050.66
2019-05-06T03:00:46.473Z,100050.97
2019-05-06T03:03:14.277Z,100049.55
2019-05-06T03:05:43.873Z,100052.92
2019-05-06T03:08:13.200Z,100053.94
2019-05-06T03:10:38.499Z,100056.93
2019-05-06T03:13:05.198Z,100053.59
2019-05-06T03:15:34.303Z,100054.72
2019-05-06T03:18:03.003Z,100050.55
2019-05-06T03:20:49.569Z,100049.27
2019-05-06T03:23:18.011Z,100051.58
2019-05-06T03:25:44.880Z,100045.19
2019-05-06T03:28:13.281Z,100046.81
2019-05-06T03:30:45.235Z,100047.33
2019-05-06T03:33:37.037Z,100042.97
2019-05-06T03:35:56.371Z,100048.02
2019-05-06T03:38:05.928Z,100054.50
2019-05-06T03:40:36.111Z,100048.02
2019-05-06T03:43:02.764Z,100041.53
2019-05-06T03:45:38.183Z,100045.78
2019-05-06T03:48:09.253Z,100044.94
2019-05-06T03:50:36.241Z,100040.26
2019-05-06T03:53:03.395Z,100045.55
2019-05-06T03:55:33.978Z,100042.74
2019-05-06T03:58:03.850Z,100033.12
2019-05-06T04:00:33.146Z,100030.94
2019-05-06T04:02:58.636Z,100041.63
2019-05-06T04:05:25.610Z,100043.56
2019-05-06T04:07:53.253Z,100040.63
2019-05-06T04:10:22.677Z,100039.58
2019-05-06T04:12:53.087Z,100037.05
2019-05-06T04:15:19.176Z,100030.03
2019-05-06T04:17:53.871Z,99998.20
2019-05-06T04:20:30.027Z,100031.67
2019-05-06T04:23:06.160Z,100037.31
2019-05-06T04:25:52.792Z,100031.42
2019-05-06T04:28:23.818Z,100033.68
2019-05-06T04:30:50.217Z,100040.15
2019-05-06T04:33:17.806Z,100038.25
2019-05-06T04:35:44.897Z,100030.73
2019-05-06T04:38:13.893Z,100035.02
2019-05-06T04:40:43.685Z,100041.36
2019-05-06T04:43:13.057Z,100042.45
2019-05-06T04:45:38.246Z,100042.20
2019-05-06T04:48:05.125Z,100041.41
2019-05-06T04:50:33.150Z,100043.52
2019-05-06T04:53:04.819Z,100044.08
2019-05-06T04:55:33.718Z,100049.77
2019-05-06T04:58:04.036Z,100049.77
2019-05-06T05:00:53.232Z,100050.30
2019-05-06T05:03:22.772Z,100049.88
2019-05-06T05:05:49.031Z,100049.78
2019-05-06T05:08:15.845Z,100051.14
2019-05-06T05:10:52.828Z,100057.02
2019-05-06T05:13:29.296Z,100051.97
2019-05-06T05:16:12.823Z,100059.14
2019-05-06T05:18:59.400Z,100055.55
2019-05-06T05:21:26.401Z,100052.61
2019-05-06T05:23:53.666Z,100052.35
2019-05-06T05:26:22.407Z,100049.40
2019-05-06T05:28:49.339Z,100049.40
2019-05-06T05:31:16.139Z,100048.58
2019-05-06T05:33:42.903Z,100051.72
2019-05-06T05:36:09.697Z,100053.19
2019-05-06T05:38:36.481Z,100064.78
2019-05-06T05:41:03.276Z,100056.47
2019-05-06T05:43:42.744Z,100059.34
2019-05-06T05:46:09.826Z,100061.27
2019-05-06T05:48:58.915Z,100063.95
2019-05-06T05:51:25.694Z,100067.31
2019-05-06T05:53:52.914Z,100062.27
2019-05-06T05:56:19.662Z,100066.77
2019-05-06T05:58:46.446Z,100072.19
2019-05-06T06:01:13.430Z,100063.80
2019-05-06T06:03:42.187Z,100062.66
2019-05-06T06:06:09.313Z,100062.66
2019-05-06T06:08:37.011Z,100067.64
2019-05-06T06:11:12.720Z,100066.36
2019-05-06T06:13:39.494Z,100066.83
2019-05-06T06:16:23.223Z,100069.16
2019-05-06T06:19:12.792Z,100042.41
2019-05-06T06:21:45.094Z,100054.10
2019-05-06T06:24:22.556Z,100061.70
2019-05-06T06:26:49.527Z,100067.36
2019-05-06T06:29:16.667Z,100058.45
2019-05-06T06:31:48.644Z,100061.37
2019-05-06T06:34:23.976Z,100060.19
2019-05-06T06:37:13.366Z,100063.27
2019-05-06T06:39:42.670Z,100063.72
2019-05-06T06:42:09.562Z,100072.55
2019-05-06T06:44:36.751Z,100066.70
2019-05-06T06:47:03.837Z,100062.22
2019-05-06T06:49:32.741Z,100059.27
2019-05-06T06:51:59.484Z,100059.81
2019-05-06T06:54:26.299Z,100055.59
2019-05-06T06:57:06.166Z,100054.86
2019-05-06T06:59:36.679Z,100056.94
2019-05-06T07:02:22.975Z,100054.21
2019-05-06T07:05:02.403Z,100057.80
2019-05-06T07:07:41.207Z,100059.94
2019-05-06T07:09:58.943Z,100054.69
2019-05-06T07:12:25.765Z,100053.61
2019-05-06T07:14:59.246Z,100052.10
2019-05-06T07:17:25.923Z,100057.09
2019-05-06T07:19:55.523Z,100046.84
2019-05-06T07:24:57.355Z,100053.46
2019-05-06T07:27:26.049Z,100040.09
2019-05-06T07:29:52.706Z,100052.56
2019-05-06T07:32:23.027Z,100043.91
2019-05-06T07:34:50.031Z,100052.20
2019-05-06T07:37:17.682Z,100045.94
2019-05-06T07:39:44.433Z,100043.67
2019-05-06T07:42:19.663Z,100046.28
2019-05-06T07:44:55.305Z,100042.19
2019-05-06T07:47:42.647Z,100047.73
2019-05-06T07:50:09.655Z,100046.22
2019-05-06T07:52:36.491Z,100044.84
2019-05-06T07:55:03.702Z,100046.39
2019-05-06T07:57:32.810Z,100005.73
2019-05-06T07:59:59.201Z,100056.89
2019-05-06T08:02:25.950Z,100057.14
2019-05-06T08:04:53.218Z,100055.13
2019-05-06T08:07:22.155Z,100052.16
2019-05-06T08:09:48.650Z,100039.63
2019-05-06T08:12:15.440Z,100035.45
2019-05-06T08:14:43.258Z,100036.34
2019-05-06T08:17:16.018Z,100046.14
2019-05-06T08:19:42.783Z,100043.80
2019-05-06T08:22:13.566Z,100031.31
2019-05-06T08:24:42.272Z,100020.48
2019-05-06T08:27:09.305Z,100023.92
2019-05-06T08:29:36.061Z,100031.55
2019-05-06T08:32:03.071Z,100037.70
2019-05-06T08:34:29.755Z,100029.30
2019-05-06T08:37:03.275Z,100023.00
2019-05-06T08:39:32.162Z,100030.81
2019-05-06T08:41:58.789Z,100023.61
2019-05-06T08:44:25.576Z,100019.02
2019-05-06T08:46:53.310Z,100016.02
2019-05-06T08:49:22.426Z,100022.12
2019-05-06T08:52:02.896Z,100031.73
2019-05-06T08:54:36.348Z,100017.30
2019-05-06T08:57:03.160Z,100033.58
2019-05-06T08:59:32.090Z,100015.00
2019-05-06T09:01:59.394Z,100021.52
2019-05-06T09:04:27.241Z,100026.09
2019-05-06T09:06:54.291Z,100023.28
2019-05-06T09:09:22.339Z,100017.17
2019-05-06T09:11:49.515Z,100023.36
2019-05-06T09:14:16.210Z,100024.17
2019-05-06T09:16:44.083Z,100026.84
2019-05-06T09:19:12.855Z,100025.72
2019-05-06T09:21:43.339Z,100017.52
2019-05-06T09:24:08.466Z,100020.11
2019-05-06T09:26:48.505Z,100025.83
2019-05-06T09:29:24.347Z,100031.84
2019-05-06T09:31:53.981Z,100027.82
2019-05-06T09:34:45.279Z,100015.68
2019-05-06T09:37:32.507Z,100012.00
2019-05-06T09:39:59.543Z,100021.37
2019-05-06T09:42:26.310Z,100015.39
2019-05-06T09:44:54.059Z,100023.16
2019-05-06T09:47:46.830Z,99988.10
2019-05-06T09:50:16.353Z,100018.33
2019-05-06T09:52:43.010Z,100015.97
2019-05-06T09:55:23.541Z,100019.48
2019-05-06T09:58:03.530Z,100014.75
2019-05-06T10:00:32.941Z,100009.71
2019-05-06T10:02:59.952Z,100019.72
2019-05-06T10:05:26.746Z,100014.76
2019-05-06T10:07:53.912Z,100009.59
2019-05-06T10:10:22.337Z,100007.66
2019-05-06T10:12:49.431Z,100007.09
2019-05-06T10:15:16.716Z,100006.81
2019-05-06T10:17:43.520Z,99998.42
2019-05-06T10:20:12.437Z,99997.36
2019-05-06T10:22:38.884Z,99993.13
2019-05-06T10:25:06.192Z,99987.48
2019-05-06T10:27:35.008Z,99978.70
2019-05-06T10:30:05.004Z,99981.55
2019-05-06T10:32:38.802Z,99982.80
2019-05-06T10:35:07.416Z,100003.08
2019-05-06T10:38:06.703Z,99998.53
2019-05-06T10:40:56.106Z,99996.48
2019-05-06T10:43:48.016Z,99981.94
2019-05-06T10:46:14.808Z,99984.56
2019-05-06T10:48:42.407Z,99995.03
2019-05-06T10:51:17.108Z,99998.75
2019-05-06T10:53:45.063Z,99999.02
2019-05-06T10:56:32.144Z,100000.30
2019-05-06T10:58:58.990Z,99986.54
2019-05-06T11:01:33.109Z,99981.43
2019-05-06T11:04:00.087Z,99968.13
2019-05-06T11:06:26.776Z,99962.39
2019-05-06T11:08:55.179Z,99964.77
2019-05-06T11:11:32.833Z,99961.94
2019-05-06T11:13:52.220Z,99936.64
2019-05-06T11:16:23.654Z,99973.03
2019-05-06T11:18:50.507Z,99984.10
2019-05-06T11:21:17.280Z,99968.66
2019-05-06T11:23:44.067Z,99964.52
2019-05-06T11:26:13.007Z,99963.91
2019-05-06T11:28:48.926Z,99972.92
2019-05-06T11:31:37.240Z,99955.92
2019-05-06T11:34:12.638Z,99954.95
2019-05-06T11:36:46.207Z,99961.61
2019-05-06T11:39:14.200Z,99959.30
2019-05-06T11:41:56.507Z,99939.58
2019-05-06T11:44:09.706Z,99964.21
2019-05-06T11:46:36.414Z,99971.30
2019-05-06T11:49:03.287Z,99982.88
2019-05-06T11:51:32.893Z,99978.77
2019-05-06T11:54:02.709Z,99975.30
2019-05-06T11:56:32.707Z,99969.86
2019-05-06T11:59:02.283Z,99965.44
2019-05-06T12:01:48.110Z,99961.34
2019-05-06T12:04:14.765Z,99935.07
2019-05-06T12:06:42.379Z,99939.95
2019-05-06T12:09:13.223Z,99913.92
2019-05-06T12:11:38.111Z,99929.16
2019-05-06T12:14:05.429Z,99930.84
2019-05-06T12:16:33.115Z,99946.48
2019-05-06T12:19:02.630Z,99926.52
2019-05-06T12:21:29.085Z,99943.53
2019-05-06T12:23:55.754Z,99945.50
2019-05-06T12:26:22.455Z,99937.02
2019-05-06T12:28:49.038Z,99941.89
2019-05-06T12:31:15.836Z,99945.47
2019-05-06T12:33:49.712Z,99938.18
2019-05-06T12:36:23.539Z,99946.05
2019-05-06T12:39:10.344Z,99947.72
2019-05-06T12:41:43.205Z,99939.61
2019-05-06T12:44:12.924Z,99943.05
2019-05-06T12:46:43.121Z,99938.77
2019-05-06T12:49:12.564Z,99938.45
2019-05-06T12:51:38.597Z,99938.83
2019-05-06T12:54:05.375Z,99941.59
2019-05-06T12:56:32.197Z,99940.63
2019-05-06T12:58:58.862Z,99933.52
2019-05-06T13:01:25.600Z,99931.01
2019-05-06T13:03:52.664Z,99939.59
2019-05-06T13:06:19.644Z,99925.90
2019-05-06T13:08:58.627Z,99936.30
2019-05-06T13:11:14.927Z,99921.31
2019-05-06T13:13:53.987Z,99938.71
2019-05-06T13:16:12.597Z,99936.84
2019-05-06T13:18:39.722Z,99935.05
2019-05-06T13:21:06.717Z,99938.32
2019-05-06T13:23:46.551Z,99935.59
2019-05-06T13:26:13.340Z,99944.36
2019-05-06T13:28:44.099Z,99935.62
2019-05-06T13:31:19.466Z,99939.62
2019-05-06T13:33:47.851Z,99946.52
2019-05-06T13:36:14.707Z,99956.15
2019-05-06T13:38:42.673Z,99972.47
2019-05-06T13:41:09.698Z,99958.02
2019-05-06T13:43:46.768Z,99949.53
2019-05-06T13:46:17.338Z,99952.70
2019-05-06T13:48:53.206Z,99951.44
2019-05-06T13:51:23.585Z,99942.20
2019-05-06T13:53:52.742Z,99936.06
2019-05-06T13:56:19.081Z,99933.53
2019-05-06T13:58:45.830Z,99937.34
2019-05-06T14:01:16.083Z,99930.09
2019-05-06T14:03:43.032Z,99926.53
2019-05-06T14:06:12.161Z,99920.06
2019-05-06T14:08:38.513Z,99914.23
2019-05-06T14:11:05.221Z,99915.80
2019-05-06T14:13:33.007Z,99926.76
2019-05-06T14:15:59.697Z,99917.95
2019-05-06T14:18:26.488Z,99914.16
2019-05-06T14:20:53.317Z,99917.01
2019-05-06T14:23:22.111Z,99899.50
2019-05-06T14:26:12.599Z,99917.84
2019-05-06T14:28:45.831Z,99914.14
2019-05-06T14:31:25.403Z,99907.16
2019-05-06T14:33:52.242Z,99907.96
2019-05-06T14:36:19.240Z,99904.89
2019-05-06T14:38:45.942Z,99898.73
2019-05-06T14:41:16.545Z,99900.64
2019-05-06T14:43:43.349Z,99901.37
2019-05-06T14:46:10.961Z,99891.13
2019-05-06T14:48:37.666Z,99876.73
2019-05-06T14:51:04.423Z,99883.31
2019-05-06T14:53:33.014Z,99892.94
2019-05-06T14:56:03.607Z,99875.31
2019-05-06T14:58:32.110Z,99881.04
2019-05-06T15:00:58.897Z,99879.66
2019-05-06T15:03:25.701Z,99891.72
2019-05-06T15:05:52.368Z,99881.59
2019-05-06T15:08:19.162Z,99897.53
2019-05-06T15:10:45.835Z,99901.64
2019-05-06T15:13:12.753Z,99909.03
2019-05-06T15:15:39.559Z,99890.38
2019-05-06T15:18:06.463Z,99906.00
2019-05-06T15:20:34.252Z,99911.24
2019-05-06T15:23:04.346Z,99902.81
2019-05-06T15:25:32.529Z,99909.25
2019-05-06T15:27:59.157Z,99900.86
2019-05-06T15:30:34.222Z,99908.63
2019-05-06T15:33:02.526Z,99899.14
2019-05-06T15:35:47.436Z,99894.80
2019-05-06T15:38:18.813Z,99908.41
2019-05-06T15:40:45.605Z,99904.89
2019-05-06T15:43:12.787Z,99904.04
2019-05-06T15:45:39.532Z,99896.59
2019-05-06T15:48:07.207Z,99891.39
2019-05-06T15:50:33.861Z,99903.77
2019-05-06T15:53:01.954Z,99899.68
2019-05-06T15:55:28.746Z,99902.98
2019-05-06T15:57:55.411Z,99905.26
2019-05-06T16:00:23.067Z,99870.68
2019-05-06T16:02:49.831Z,99898.30
2019-05-06T16:05:19.867Z,99896.54
2019-05-06T16:07:46.847Z,99888.31
2019-05-06T16:10:15.123Z,99898.16
2019-05-06T16:12:45.877Z,99896.57
2019-05-06T16:15:12.995Z,99896.57
2019-05-06T16:17:42.439Z,99899.74
2019-05-06T16:20:08.519Z,99898.62
2019-05-06T16:22:35.633Z,99895.73
2019-05-06T16:25:08.210Z,99896.75
2019-05-06T16:27:34.971Z,99849.08
2019-05-06T16:30:04.292Z,99895.76
2019-05-06T16:32:33.249Z,99902.00
2019-05-06T16:34:59.541Z,99885.38
2019-05-06T16:37:26.194Z,99884.95
2019-05-06T16:39:54.671Z,99885.70
2019-05-06T16:42:22.406Z,99878.13
2019-05-06T16:44:49.318Z,99885.70
2019-05-06T16:47:35.183Z,99885.64
2019-05-06T16:50:02.080Z,99896.70
2019-05-06T16:52:28.683Z,99872.55
2019-05-06T16:54:57.989Z,99887.84
2019-05-06T16:57:24.787Z,99886.14
2019-05-06T16:59:52.257Z,99889.88
2019-05-06T17:02:26.486Z,99888.48
2019-05-06T17:05:17.260Z,99890.73
2019-05-06T17:07:45.056Z,99891.61
2019-05-06T17:10:12.071Z,99888.48
2019-05-06T17:12:39.119Z,99898.30
2019-05-06T17:15:05.927Z,99896.50
2019-05-06T17:17:40.824Z,99881.52
2019-05-06T17:20:03.133Z,99881.52
2019-05-06T17:22:32.178Z,99911.74
2019-05-06T17:24:58.739Z,99895.83
2019-05-06T17:27:25.408Z,99904.13
2019-05-06T17:30:19.565Z,99899.20
2019-05-06T17:32:52.574Z,99908.63
2019-05-06T17:35:19.498Z,99911.63
2019-05-06T17:38:22.416Z,99923.59
2019-05-06T17:40:49.289Z,99930.31
2019-05-06T17:43:16.027Z,99933.44
2019-05-06T17:45:58.496Z,99934.11
2019-05-06T17:48:33.095Z,99930.09
2019-05-06T17:51:33.836Z,99944.48
2019-05-06T17:54:03.703Z,99933.52
2019-05-06T17:56:30.470Z,99947.63
2019-05-06T17:58:57.154Z,99956.52
2019-05-06T18:01:32.412Z,99959.03
2019-05-06T18:03:58.783Z,99935.81
2019-05-06T18:06:25.741Z,99947.16
2019-05-06T18:08:52.910Z,99968.94
2019-05-06T18:11:19.721Z,99972.34
2019-05-06T18:13:47.077Z,99974.09
2019-05-06T18:16:14.046Z,99968.42
2019-05-06T18:18:41.021Z,99950.30
2019-05-06T18:21:07.575Z,99973.80
2019-05-06T18:23:34.268Z,99970.47
2019-05-06T18:26:03.183Z,99964.08
2019-05-06T18:28:32.256Z,99969.14
2019-05-06T18:30:59.150Z,99964.94
2019-05-06T18:33:26.106Z,99964.10
2019-05-06T18:35:53.597Z,99958.75
2019-05-06T18:38:21.814Z,99958.13
2019-05-06T18:40:48.715Z,99957.18
2019-05-06T18:43:15.272Z,99957.13
2019-05-06T18:45:42.056Z,99958.53
2019-05-06T18:48:08.613Z,99962.41
2019-05-06T18:50:35.407Z,99958.81
2019-05-06T18:53:02.508Z,99960.34
2019-05-06T18:55:29.452Z,99966.84
2019-05-06T18:57:56.393Z,99958.98
2019-05-06T19:00:23.185Z,99958.48
2019-05-06T19:02:52.064Z,99965.20
2019-05-06T19:05:26.778Z,99967.84
2019-05-06T19:07:52.751Z,99969.64
2019-05-06T19:10:23.676Z,99970.21
2019-05-06T19:12:52.391Z,99968.92
2019-05-06T19:15:22.083Z,99969.64
2019-05-06T19:17:48.978Z,99966.77
2019-05-06T19:20:15.758Z,99975.09
2019-05-06T19:22:43.449Z,99976.04
2019-05-06T19:25:14.343Z,99968.20
2019-05-06T19:27:39.197Z,99973.67
2019-05-06T19:30:06.966Z,99977.89
2019-05-06T19:32:35.266Z,99979.28
2019-05-06T19:35:02.836Z,99980.57
2019-05-06T19:37:32.302Z,99988.69
2019-05-06T19:39:58.720Z,99992.18
2019-05-06T19:42:25.301Z,99984.33
2019-05-06T19:44:52.826Z,99983.93
2019-05-06T19:47:19.905Z,99988.32
2019-05-06T19:49:46.675Z,99994.89
2019-05-06T19:52:13.473Z,99992.52
2019-05-06T19:54:42.348Z,99990.00
2019-05-06T19:57:08.834Z,99989.06
2019-05-06T19:59:35.487Z,99988.71
2019-05-06T20:02:02.308Z,99992.21
2019-05-06T20:04:29.075Z,99991.24
2019-05-06T20:07:04.564Z,99992.43
2019-05-06T20:09:49.631Z,99985.70
2019-05-06T20:12:23.484Z,99986.98
2019-05-06T20:14:52.480Z,99995.16
2019-05-06T20:17:19.074Z,99994.53
2019-05-06T20:19:45.786Z,99995.16
2019-05-06T20:22:13.070Z,99999.02
2019-05-06T20:24:42.482Z,99996.66
2019-05-06T20:27:09.632Z,99995.23
2019-05-06T20:29:38.462Z,99990.74
2019-05-06T20:32:05.862Z,99985.91
2019-05-06T20:34:32.633Z,99986.81
2019-05-06T20:36:59.458Z,99988.15
2019-05-06T20:39:26.271Z,99990.11
2019-05-06T20:41:52.982Z,99993.02
2019-05-06T20:44:26.871Z,99980.02
2019-05-06T20:46:54.779Z,99980.10
2019-05-06T20:49:21.743Z,99973.66
2019-05-06T20:51:48.444Z,99963.37
2019-05-06T20:54:15.323Z,99966.91
2019-05-06T20:56:42.259Z,99960.69
2019-05-06T20:59:09.089Z,99961.92
2019-05-06T21:01:35.683Z,99960.45
2019-05-06T21:04:02.476Z,99963.81
2019-05-06T21:06:29.300Z,99962.80
2019-05-06T21:08:56.298Z,99960.67
2019-05-06T21:11:28.822Z,99958.06
2019-05-06T21:13:51.730Z,99960.67
2019-05-06T21:16:18.511Z,99960.43
2019-05-06T21:18:45.676Z,99960.98
2019-05-06T21:21:13.599Z,99969.14
2019-05-06T21:23:42.679Z,99967.47
2019-05-06T21:26:09.419Z,99964.78
2019-05-06T21:28:35.987Z,99962.52
2019-05-06T21:31:03.242Z,99960.34
2019-05-06T21:33:32.919Z,99957.38
2019-05-06T21:35:59.751Z,99966.02
2019-05-06T21:38:26.351Z,99957.91
2019-05-06T21:40:53.005Z,99966.22
2019-05-06T21:43:19.896Z,99963.27
2019-05-06T21:45:46.565Z,99966.25
2019-05-06T21:48:15.645Z,99964.36
2019-05-06T21:50:42.757Z,99963.49
2019-05-06T21:53:12.226Z,99960.05
2019-05-06T21:55:38.233Z,99967.14
2019-05-06T21:58:04.998Z,99958.50
2019-05-06T22:00:49.657Z,99957.08
2019-05-06T22:03:16.380Z,99959.42
2019-05-06T22:05:43.182Z,99963.04
2019-05-06T22:08:10.000Z,99953.27
2019-05-06T22:10:36.702Z,99947.46
2019-05-06T22:13:03.484Z,99952.77
2019-05-06T22:15:32.259Z,99958.20
2019-05-06T22:17:58.865Z,99957.84
2019-05-06T22:20:26.059Z,99955.74
2019-05-06T22:22:53.078Z,99958.65
2019-05-06T22:25:21.982Z,99957.63
2019-05-06T22:27:48.716Z,99954.78
2019-05-06T22:30:15.836Z,99958.86
2019-05-06T22:32:45.287Z,99960.70
2019-05-06T22:35:12.621Z,99903.81
2019-05-06T22:37:39.256Z,99954.95
2019-05-06T22:40:07.985Z,99956.77
2019-05-06T22:42:34.789Z,99956.34
2019-05-06T22:45:23.030Z,99944.70
2019-05-06T22:47:49.812Z,99947.63
2019-05-06T22:50:16.644Z,99944.75
2019-05-06T22:52:43.428Z,99952.00
2019-05-06T22:55:12.773Z,99947.50
2019-05-06T22:57:39.079Z,99904.08
2019-05-06T23:00:08.646Z,99952.05
2019-05-06T23:02:44.279Z,99945.96
2019-05-06T23:05:12.180Z,99952.05
2019-05-06T23:07:39.054Z,99953.80
2019-05-06T23:10:06.775Z,99954.42
2019-05-06T23:12:33.568Z,99953.52
2019-05-06T23:15:02.672Z,99957.23
2019-05-06T23:17:29.236Z,99961.20
2019-05-06T23:19:55.802Z,99956.28
2019-05-06T23:22:22.826Z,99960.25
2019-05-06T23:24:49.682Z,99958.53
2019-05-06T23:27:16.277Z,99964.75
2019-05-06T23:29:44.988Z,99964.75
2019-05-06T23:32:13.796Z,99964.65
2019-05-06T23:34:40.354Z,99964.65
2019-05-06T23:37:26.660Z,99963.16
2019-05-06T23:43:43.030Z,99961.15
2019-05-06T23:46:46.438Z,99961.15
2019-05-06T23:49:50.021Z,99963.66
2019-05-06T23:52:53.084Z,99965.67
2019-05-06T23:55:56.419Z,99967.70
2019-05-06T23:58:22.554Z,99960.44
